• Join FlightAware (Why Join?)
  • Login
  • US Flag 
04:36AM EDT


 

Airport Tracker/Info


-or-


 

Live Flight TrackerFlight Track Log ✈ UAL4422 ✈ 16-Apr-2013 ✈ KMAF - KIAH

Flight Track Log - Related Links

Times and Time Zones

All times are in EDT time to prevent confusion due to time zone crossing. See the UAL4422 flight status page for this flight to view local times or setup timezone preferences in your user account.

Time Position Orientation Groundspeed Altitude Reporting Facility
EDT Latitude Longitude Course Direction KTS MPH feet Rate Location/Type
06:10PM 31.8189 -101.8233 111° Southeast  Level FlightAware Approximate
06:10PM 31.8078 -101.9503 106° East 284 327 9,600  Level Fort Worth Center
06:11PM 31.7855 -101.7310 113° Southeast  Level FlightAware Approximate
06:11PM 31.7819 -101.8586 108° East 289 333 11,300  Level Fort Worth Center
06:12PM 31.7520 -101.6388 113° Southeast  Level FlightAware Approximate
06:12PM 31.7578 -101.7669 107° East 294 338 12,800  Level Fort Worth Center
06:13PM 31.7216 -101.5196 106° East  Level FlightAware Approximate
06:13PM 31.7261 -101.6631 110° East 304 350 14,300  Level Fort Worth Center
06:14PM 31.6872 -101.4018 109° East  Level FlightAware Approximate
06:14PM 31.6961 -101.5567 108° East 324 373 15,800  Level Fort Worth Center
06:15PM 31.6642 -101.4503 109° East 337 388 17,300 1,560 Climbing Fort Worth Center
06:16PM 31.6342 -101.3417 108° East 343 395 19,000 1,560 Climbing Fort Worth Center
06:17PM 31.6042 -101.2331 108° East 348 400 20,500 1,500 Climbing Fort Worth Center
06:18PM 31.5700 -101.1169 109° East 353 406 22,000 1,200 Climbing Fort Worth Center
06:19PM 31.5336 -101.0008 110° East 363 418 23,000 480 Climbing Fort Worth Center
06:20PM 31.4975 -100.8728 108° East 392 451 23,000  Level Fort Worth Center
06:21PM 31.4575 -100.7375 109° East 419 482 23,000  Level Fort Worth Center
06:22PM 31.4172 -100.6022 109° East 434 499 23,000 540 Level Fort Worth Center
06:25PM 31.3178 -100.2872 110° East 425 489 25,000 540 Climbing Houston Center
06:26PM 31.2725 -100.1536 112° Southeast 434 499 25,000  Level Houston Center
06:27PM 31.2242 -100.0139 112° Southeast 455 524 25,000  Level Houston Center
06:28PM 31.1689 -99.8433 111° Southeast 465 535 25,000  Level Houston Center
06:29PM 31.1533 -99.6878 97° East 475 547 25,000  Level Houston Center
06:30PM 31.1406 -99.5344 96° East 475 547 25,000  Level Houston Center
06:31PM 31.1272 -99.3836 96° East 470 541 25,000  Level Houston Center
06:32PM 31.1158 -99.2325 95° East 468 539 25,000  Level Houston Center
06:33PM 31.1011 -99.0750 96° East 471 542 25,000  Level Houston Center
06:34PM 31.0864 -98.8956 95° East 472 543 25,000  Level Houston Center
06:35PM 31.0722 -98.7414 96° East 474 545 25,000  Level Houston Center
06:36PM 31.0586 -98.5872 96° East 473 544 25,000  Level Houston Center
06:37PM 31.0431 -98.4328 97° East 475 547 25,000  Level Houston Center
06:38PM 31.0297 -98.2786 96° East 474 545 25,000  Level Houston Center
06:39PM 31.0153 -98.1236 96° East 476 548 25,000  Level Houston Center
06:40PM 31.0006 -97.9686 96° East 477 549 25,000  Level Houston Center
06:41PM 30.9836 -97.7886 96° East 476 548 25,000  Level Houston Center
06:42PM 30.9683 -97.6322 96° East 481 554 25,000  Level Houston Center
06:43PM 30.9525 -97.4767 97° East 479 551 25,000  Level Houston Center
06:44PM 30.9372 -97.3203 96° East 482 555 25,000 -300 Level Houston Center
06:45PM 30.9206 -97.1464 96° East 488 562 24,400 -540 Descending Houston Center
06:46PM 30.9064 -97.0067 97° East 423 487 24,000 -240 Descending Houston Center
06:47PM 30.8931 -96.8706 96° East 423 487 24,000  Level Houston Center
06:48PM 30.8783 -96.7375 97° East 415 478 24,000  Level Houston Center
06:49PM 30.8636 -96.6008 97° East 425 489 24,000 -240 Level Houston Center
06:50PM 30.8458 -96.4675 99° East 416 479 23,600 -1,560 Descending Houston Center
06:51PM 30.7803 -96.3592 125° Southeast 403 464 20,800 -2,700 Descending Houston Center
06:53PM 30.7039 -96.2406 127° Southeast 389 448 18,000 -2,280 Descending Houston Center
06:54PM 30.6428 -96.1489 128° Southeast 361 415 16,100 -1,920 Descending Houston Center
06:54PM 30.6008 -96.0908 130° Southeast 335 386 14,800 -1,980 Descending Houston Center
06:55PM 30.5853 -96.0619 122° Southeast 338 389 14,100 -2,040 Descending Houston Center
06:56PM 30.5344 -95.9864 128° Southeast 328 377 12,000 -1,860 Descending Houston Center
06:57PM 30.4608 -95.8792 129° Southeast 299 344 10,000 -1,020 Descending Houston Center
06:58PM 30.4183 -95.8239 132° Southeast 282 325 10,000 -900 Level Houston Center
06:59PM 30.3686 -95.7744 139° Southeast 238 274 8,300 -1,500 Descending Houston Center
07:00PM 30.3194 -95.7233 138° Southeast 238 274 7,000 -960 Descending Houston Center
07:01PM 30.2839 -95.7639 225° Southwest 229 264 6,400 -480 Descending Houston Center
07:02PM 30.2750 -95.8667 264° West 237 273 6,000 -240 Descending Houston Center
07:03PM 30.2433 -95.8931 216° Southwest 213 245 6,000 -360 Level Houston Center
07:04PM 30.1894 -95.8892 176° South 195 224 5,400 -1,020 Descending Houston Center
07:05PM 30.1289 -95.8739 168° South 187 215 3,800 -1,140 Descending Houston Center
07:06PM 30.0956 -95.8458 144° Southeast 186 214 3,100 -420 Descending Houston Center
07:07PM 30.0539 -95.8078 142° Southeast 168 193 3,000 -60 Descending Houston Center
07:08PM 30.0125 -95.7692 141° Southeast 170 196 3,000  Level Houston Center
07:09PM 30.0081 -95.7167 96° East 194 223 3,000  Level Houston Center
07:10PM 30.0047 -95.6567 94° East 183 211 3,000  Level Houston Center
07:11PM 30.0056 -95.5964 89° East 175 201 3,000  Level Houston Center
07:12PM 30.0058 -95.5456 90° East 175 201 3,100 60 Climbing Houston Center